Time;durP1;ratioP1;P1;durP2;ratioP2;P2;SDS_P1;SDS_P2;PMS_P1;PMS_P2;Temp;Humidity;BMP_temperature;BMP_pressure;BME280_temperature;BME280_humidity;BME280_pressure;Samples;Min_cycle;Max_cycle;Signal;HPM_P1;HPM_P2
2022/07/24 00:02:04;;;;;;;7.03;4.50;;;;;;;16.72;100.00;100880.94;5035475;28;20038;-69
2022/07/24 00:04:30;;;;;;;10.13;5.00;;;;;;;16.75;100.00;100882.53;5064264;28;20043;-69
2022/07/24 00:06:55;;;;;;;10.45;5.00;;;;;;;16.64;100.00;100871.78;5070750;28;20086;-69
2022/07/24 00:09:20;;;;;;;6.22;4.43;;;;;;;16.62;100.00;100873.69;5072927;28;20047;-69
2022/07/24 00:11:46;;;;;;;5.85;4.68;;;;;;;16.61;100.00;100872.84;5073178;28;20035;-69
2022/07/24 00:14:11;;;;;;;6.30;5.03;;;;;;;16.60;100.00;100872.94;5061085;28;20363;-69
2022/07/24 00:16:37;;;;;;;6.35;4.65;;;;;;;16.57;100.00;100870.47;5066666;28;20381;-69
2022/07/24 00:19:02;;;;;;;7.20;5.30;;;;;;;16.63;100.00;100875.38;5060097;28;20040;-71
2022/07/24 00:21:28;;;;;;;13.25;4.82;;;;;;;16.50;100.00;100851.44;5067500;28;20025;-71
2022/07/24 00:23:53;;;;;;;7.72;5.18;;;;;;;16.70;100.00;100888.13;5063851;28;20090;-70
2022/07/24 00:26:19;;;;;;;5.30;4.32;;;;;;;16.55;100.00;100859.09;5069921;28;20025;-71
2022/07/24 00:28:44;;;;;;;6.75;4.40;;;;;;;16.78;100.00;100874.34;5085472;28;20472;-70
2022/07/24 00:31:10;;;;;;;4.45;3.45;;;;;;;16.67;100.00;100852.97;5073349;28;20211;-71
2022/07/24 00:33:36;;;;;;;5.80;4.22;;;;;;;16.75;100.00;100856.84;5074349;28;20024;-71
2022/07/24 00:36:01;;;;;;;7.57;4.28;;;;;;;16.80;100.00;100864.47;5069629;28;20036;-71
2022/07/24 00:38:27;;;;;;;5.28;3.72;;;;;;;16.76;100.00;100855.84;5065915;28;20132;-71
2022/07/24 00:40:52;;;;;;;6.57;4.60;;;;;;;16.86;100.00;100869.38;5080965;28;20028;-71
2022/07/24 00:43:18;;;;;;;6.75;4.25;;;;;;;16.87;100.00;100868.41;5064121;28;20021;-70
2022/07/24 00:45:43;;;;;;;7.55;3.88;;;;;;;16.89;100.00;100870.97;5071868;28;20375;-70
2022/07/24 00:48:09;;;;;;;7.65;3.95;;;;;;;16.82;100.00;100854.59;5067305;28;20035;-69
2022/07/24 00:50:36;;;;;;;6.25;4.30;;;;;;;16.88;100.00;100875.41;5069518;28;20103;-70
2022/07/24 00:53:02;;;;;;;4.95;3.63;;;;;;;16.74;100.00;100854.28;5071689;28;20029;-70
2022/07/24 00:55:27;;;;;;;9.07;4.68;;;;;;;16.85;100.00;100880.94;5101604;28;20657;-70
2022/07/24 00:57:53;;;;;;;5.07;3.97;;;;;;;16.80;100.00;100872.41;5059328;28;20039;-70
2022/07/24 01:00:19;;;;;;;7.45;4.22;;;;;;;16.83;100.00;100882.84;5070157;28;20378;-70
2022/07/24 01:02:45;;;;;;;5.60;3.78;;;;;;;16.66;100.00;100859.28;5082684;28;20466;-70
2022/07/24 01:05:11;;;;;;;4.90;3.65;;;;;;;16.68;100.00;100865.31;5063811;28;21073;-70
2022/07/24 01:07:37;;;;;;;6.97;4.03;;;;;;;16.42;100.00;100826.41;5071456;28;20056;-70
2022/07/24 01:10:03;;;;;;;4.47;3.50;;;;;;;16.74;100.00;100883.47;5065685;28;20064;-69
2022/07/24 01:12:30;;;;;;;5.38;3.92;;;;;;;16.62;100.00;100868.38;5080952;28;20059;-70
2022/07/24 01:14:56;;;;;;;7.18;4.45;;;;;;;16.64;100.00;100871.78;5065074;28;20033;-70
2022/07/24 01:17:21;;;;;;;5.68;4.38;;;;;;;16.57;100.00;100867.81;5076850;28;20101;-70
2022/07/24 01:19:47;;;;;;;4.78;3.85;;;;;;;16.55;100.00;100873.25;5078183;28;20078;-70
2022/07/24 01:22:12;;;;;;;7.18;4.10;;;;;;;16.54;100.00;100866.22;5066456;28;20025;-70
2022/07/24 01:24:37;;;;;;;6.57;4.05;;;;;;;16.49;100.00;100865.69;5055479;28;20044;-70
2022/07/24 01:27:03;;;;;;;7.82;4.82;;;;;;;16.40;100.00;100852.16;5069212;28;20132;-70
2022/07/24 01:29:28;;;;;;;6.35;4.53;;;;;;;16.38;100.00;100854.06;5061402;28;20028;-70
2022/07/24 01:31:54;;;;;;;6.95;4.93;;;;;;;16.32;100.00;100853.50;5057857;28;20029;-70
2022/07/24 01:34:19;;;;;;;7.47;4.75;;;;;;;16.34;100.00;100859.59;5054163;28;20143;-70
2022/07/24 01:36:44;;;;;;;5.07;4.40;;;;;;;16.11;100.00;100833.75;5052338;28;20021;-69
2022/07/24 01:39:10;;;;;;;5.85;3.47;;;;;;;16.18;100.00;100848.31;5054641;28;20032;-70
2022/07/24 01:41:35;;;;;;;4.93;3.95;;;;;;;16.12;100.00;100848.69;5061948;28;20395;-69
2022/07/24 01:44:01;;;;;;;6.32;3.90;;;;;;;16.07;100.00;100850.81;5069949;28;20017;-70
2022/07/24 01:46:26;;;;;;;5.95;4.70;;;;;;;16.09;100.00;100863.94;5078248;28;20086;-70
2022/07/24 01:48:51;;;;;;;6.13;4.15;;;;;;;16.05;100.00;100863.31;5079471;28;21747;-70
2022/07/24 01:51:17;;;;;;;6.82;4.90;;;;;;;15.92;100.00;100865.03;5067754;28;20028;-70
2022/07/24 01:53:42;;;;;;;5.82;4.90;;;;;;;16.03;100.00;100877.59;5068094;28;20504;-71
2022/07/24 01:56:08;;;;;;;7.55;5.05;;;;;;;15.97;100.00;100864.75;5070359;28;20039;-70
2022/07/24 01:58:33;;;;;;;7.25;4.88;;;;;;;15.85;100.00;100847.84;5080487;28;20112;-70
2022/07/24 02:00:58;;;;;;;8.57;5.78;;;;;;;15.87;100.00;100843.31;5062271;28;20029;-70
2022/07/24 02:03:24;;;;;;;20.92;6.38;;;;;;;15.98;100.00;100867.31;5081246;28;20386;-70
2022/07/24 02:05:49;;;;;;;10.48;5.47;;;;;;;15.96;100.00;100863.03;5081988;28;20032;-69
2022/07/24 02:08:15;;;;;;;7.60;5.43;;;;;;;15.88;100.00;100849.47;5083591;28;20391;-70
2022/07/24 02:10:40;;;;;;;7.03;5.72;;;;;;;15.82;100.00;100846.25;5066483;28;20111;-70
2022/07/24 02:13:06;;;;;;;7.55;5.10;;;;;;;15.91;100.00;100860.72;5071569;28;20025;-70
2022/07/24 02:15:32;;;;;;;7.95;5.13;;;;;;;15.87;100.00;100856.56;5064448;28;20028;-70
2022/07/24 02:17:59;;;;;;;8.45;5.65;;;;;;;15.61;100.00;100822.94;5074136;28;20479;-70
2022/07/24 02:20:25;;;;;;;6.72;5.35;;;;;;;15.82;100.00;100863.94;5088419;28;20032;-70
2022/07/24 02:22:51;;;;;;;7.78;5.40;;;;;;;15.59;100.00;100835.41;5085397;28;20440;-70
2022/07/24 02:25:16;;;;;;;6.35;5.57;;;;;;;15.64;100.00;100836.00;5074719;28;20029;-70
2022/07/24 02:27:42;;;;;;;7.38;5.60;;;;;;;15.72;100.00;100852.22;5075558;28;20025;-70
2022/07/24 02:30:14;;;;;;;8.93;5.60;;;;;;;15.72;100.00;100860.19;5078033;28;20028;-70
2022/07/24 02:32:39;;;;;;;7.18;5.57;;;;;;;15.55;100.00;100832.13;5086727;28;20021;-70
2022/07/24 02:35:05;;;;;;;6.85;4.88;;;;;;;15.69;100.00;100857.72;5055875;28;20522;-70
2022/07/24 02:37:31;;;;;;;8.10;5.32;;;;;;;15.67;100.00;100854.34;5054943;28;20087;-70
2022/07/24 02:39:56;;;;;;;7.35;5.50;;;;;;;15.60;100.00;100845.06;5054019;28;20602;-70
2022/07/24 02:42:22;;;;;;;7.53;5.53;;;;;;;15.66;100.00;100856.13;5050209;28;20074;-70
2022/07/24 02:44:47;;;;;;;9.00;5.82;;;;;;;15.60;100.00;100850.38;5074606;28;20070;-70
2022/07/24 02:47:13;;;;;;;7.85;5.57;;;;;;;15.54;100.00;100853.41;5074805;28;20077;-70
2022/07/24 02:49:38;;;;;;;6.32;4.95;;;;;;;15.51;100.00;100843.03;5070289;28;20025;-70
2022/07/24 02:52:04;;;;;;;6.68;5.38;;;;;;;15.55;100.00;100857.75;5055515;28;20474;-70
2022/07/24 02:54:29;;;;;;;7.78;5.47;;;;;;;15.55;100.00;100855.09;5061464;28;20047;-70
2022/07/24 02:56:54;;;;;;;8.45;6.05;;;;;;;15.53;100.00;100854.34;5066110;28;20531;-70
2022/07/24 02:59:20;;;;;;;12.35;6.38;;;;;;;15.48;100.00;100852.00;5055055;28;20035;-70
2022/07/24 03:01:45;;;;;;;10.13;6.78;;;;;;;15.58;100.00;100871.66;5067074;28;20033;-70
2022/07/24 03:04:11;;;;;;;8.40;6.32;;;;;;;15.59;100.00;100867.22;5081219;28;20028;-70
2022/07/24 03:06:36;;;;;;;13.05;6.57;;;;;;;15.58;100.00;100865.53;5060031;28;20028;-70
2022/07/24 03:09:02;;;;;;;10.85;6.70;;;;;;;15.51;100.00;100846.53;5075003;28;20021;-70
2022/07/24 03:11:28;;;;;;;10.32;7.20;;;;;;;15.54;100.00;100853.41;5060581;28;20087;-70
2022/07/24 03:13:53;;;;;;;10.85;7.80;;;;;;;15.56;100.00;100859.47;5042633;28;20037;-70
2022/07/24 03:16:19;;;;;;;9.95;6.93;;;;;;;15.62;100.00;100867.88;5055151;28;20037;-70
2022/07/24 03:18:45;;;;;;;12.65;7.82;;;;;;;15.55;100.00;100857.75;5084729;28;20029;-70
2022/07/24 03:21:13;;;;;;;11.20;8.02;;;;;;;15.60;100.00;100856.53;5073813;28;20510;-70
2022/07/24 03:23:38;;;;;;;10.48;7.25;;;;;;;15.57;100.00;100864.66;5060390;28;20024;-70
2022/07/24 03:26:04;;;;;;;11.20;7.95;;;;;;;15.61;100.00;100873.28;5063721;28;20048;-71
2022/07/24 03:28:29;;;;;;;10.70;7.75;;;;;;;15.42;100.00;100848.84;5054025;28;20032;-71
2022/07/24 03:30:55;;;;;;;9.18;7.78;;;;;;;15.61;100.00;100878.56;5058413;28;20060;-71
2022/07/24 03:33:20;;;;;;;12.55;9.23;;;;;;;15.60;100.00;100871.56;5055899;28;20059;-71
2022/07/24 03:35:45;;;;;;;9.43;8.27;;;;;;;15.58;100.00;100862.88;5058576;28;20033;-71
2022/07/24 03:38:11;;;;;;;11.50;8.35;;;;;;;15.57;100.00;100866.47;5052408;28;20029;-71
2022/07/24 03:40:36;;;;;;;10.45;8.95;;;;;;;15.51;100.00;100861.56;5085668;28;20032;-72
2022/07/24 03:43:02;;;;;;;12.77;8.95;;;;;;;15.61;100.00;100874.13;5055730;28;20035;-71
2022/07/24 03:45:27;;;;;;;15.45;9.45;;;;;;;15.53;100.00;100851.72;5059627;28;20412;-71
2022/07/24 03:47:52;;;;;;;12.40;8.43;;;;;;;15.48;100.00;100859.94;5057726;28;20048;-71
2022/07/24 03:50:18;;;;;;;12.80;8.50;;;;;;;15.18;100.00;100820.31;5055922;28;20024;-71
2022/07/24 03:52:43;;;;;;;11.95;9.18;;;;;;;15.28;100.00;100857.66;5057854;28;20029;-71
2022/07/24 03:55:09;;;;;;;16.50;10.07;;;;;;;15.39;100.00;100883.47;5100066;27;20111;-70
2022/07/24 03:57:34;;;;;;;14.43;8.95;;;;;;;15.37;100.00;100885.38;5063064;28;20075;-70
2022/07/24 03:59:59;;;;;;;15.73;10.45;;;;;;;15.34;100.00;100875.84;5066784;28;20104;-69
2022/07/24 04:02:25;;;;;;;11.68;10.30;;;;;;;15.37;100.00;100878.28;5063440;28;20032;-69
2022/07/24 04:04:50;;;;;;;14.52;11.45;;;;;;;15.23;100.00;100857.97;5062498;28;20033;-69
2022/07/24 04:07:15;;;;;;;14.00;11.23;;;;;;;15.34;100.00;100876.66;5061827;28;20512;-69
2022/07/24 04:09:41;;;;;;;17.75;12.07;;;;;;;15.30;100.00;100877.81;5024692;28;20099;-69
2022/07/24 04:12:07;;;;;;;13.43;11.80;;;;;;;15.24;100.00;100856.16;5059372;28;20029;-69
2022/07/24 04:14:32;;;;;;;16.83;13.23;;;;;;;15.23;100.00;100851.81;5073317;28;20493;-69
2022/07/24 04:16:57;;;;;;;17.02;13.40;;;;;;;15.22;100.00;100852.75;5062595;28;20028;-69
2022/07/24 04:19:23;;;;;;;14.57;12.88;;;;;;;15.32;100.00;100860.03;5056374;28;20027;-69
2022/07/24 04:21:48;;;;;;;18.05;13.70;;;;;;;15.28;100.00;100861.16;5060814;28;20032;-69
2022/07/24 04:24:13;;;;;;;14.82;13.20;;;;;;;15.26;100.00;100852.47;5070538;28;20099;-69
2022/07/24 04:26:39;;;;;;;16.88;13.63;;;;;;;15.13;100.00;100829.50;5082879;28;20538;-69
2022/07/24 04:29:04;;;;;;;18.40;15.20;;;;;;;15.24;100.00;100842.94;5064699;28;20384;-69
2022/07/24 04:31:30;;;;;;;16.38;13.38;;;;;;;15.26;100.00;100841.88;5084033;28;20356;-70
2022/07/24 04:33:55;;;;;;;15.95;14.35;;;;;;;15.38;100.00;100860.59;5065895;28;20040;-69
2022/07/24 04:36:20;;;;;;;20.80;16.70;;;;;;;15.33;100.00;100837.91;5069224;28;20040;-69
2022/07/24 04:38:46;;;;;;;23.23;19.08;;;;;;;15.37;100.00;100848.28;5072514;28;20179;-69
2022/07/24 04:41:11;;;;;;;24.60;20.05;;;;;;;15.50;100.00;100866.00;5071880;28;20394;-69
2022/07/24 04:43:37;;;;;;;28.15;20.55;;;;;;;15.54;100.00;100866.66;5062284;28;20103;-69
2022/07/24 04:46:02;;;;;;;23.52;19.52;;;;;;;15.60;100.00;100872.41;5048964;28;20028;-69
2022/07/24 04:48:28;;;;;;;24.23;19.35;;;;;;;15.60;100.00;100872.41;5070154;28;20025;-69
2022/07/24 04:50:53;;;;;;;24.10;20.20;;;;;;;15.61;100.00;100860.03;5071916;28;20028;-69
2022/07/24 04:53:18;;;;;;;27.65;21.65;;;;;;;15.75;100.00;100881.16;5069818;28;20047;-69
2022/07/24 04:55:44;;;;;;;27.90;20.05;;;;;;;15.78;100.00;100875.72;5063252;28;20113;-69
2022/07/24 04:58:09;;;;;;;24.65;21.85;;;;;;;15.79;100.00;100883.53;5086291;27;20023;-69
2022/07/24 05:00:35;;;;;;;31.60;23.45;;;;;;;15.72;100.00;100876.06;5072168;28;20055;-69
2022/07/24 05:03:00;;;;;;;30.15;22.60;;;;;;;15.76;100.00;100877.59;5071566;28;20070;-69
2022/07/24 05:05:25;;;;;;;23.88;21.33;;;;;;;15.52;100.00;100823.50;5063111;28;20034;-69
2022/07/24 05:07:51;;;;;;;31.83;23.13;;;;;;;15.86;100.00;100881.34;5070658;28;20495;-69
2022/07/24 05:10:16;;;;;;;34.90;23.05;;;;;;;15.83;100.00;100874.44;5050421;28;20025;-69
2022/07/24 05:12:42;;;;;;;33.20;24.38;;;;;;;15.94;100.00;100880.88;5062474;28;20035;-69
2022/07/24 05:15:08;;;;;;;29.85;25.00;;;;;;;15.95;100.00;100886.06;5064767;28;21565;-69
2022/07/24 05:17:34;;;;;;;30.20;25.52;;;;;;;15.98;100.00;100883.22;5052316;28;20083;-69
2022/07/24 05:20:00;;;;;;;33.85;25.27;;;;;;;16.03;100.00;100890.84;5064578;28;20028;-69
2022/07/24 05:22:25;;;;;;;30.63;25.83;;;;;;;16.03;100.00;100883.75;5060057;28;20023;-69
2022/07/24 05:24:51;;;;;;;34.72;27.90;;;;;;;16.04;100.00;100880.16;5057482;28;20029;-69
2022/07/24 05:27:16;;;;;;;31.35;27.23;;;;;;;16.14;100.00;100886.56;5052411;28;20103;-69
2022/07/24 05:29:41;;;;;;;34.63;28.13;;;;;;;16.22;100.00;100891.38;5063886;28;20441;-69
2022/07/24 05:32:07;;;;;;;35.08;29.30;;;;;;;16.21;100.00;100879.91;5069918;28;20058;-69
2022/07/24 05:34:32;;;;;;;35.45;29.00;;;;;;;16.27;100.00;100874.22;5070493;28;20040;-69
2022/07/24 05:36:58;;;;;;;32.67;27.67;;;;;;;16.36;100.00;100873.59;5067612;28;20036;-69
2022/07/24 05:39:23;;;;;;;33.40;29.27;;;;;;;16.34;100.00;100854.28;5063500;28;20074;-69
2022/07/24 05:41:48;;;;;;;36.42;28.80;;;;;;;16.54;100.00;100875.97;5084667;28;20058;-69
2022/07/24 05:44:14;;;;;;;35.53;29.55;;;;;;;16.55;100.00;100867.06;5072827;28;20111;-69
2022/07/24 05:46:39;;;;;;;34.85;29.13;;;;;;;16.61;100.00;100861.38;5062003;28;20030;-69
2022/07/24 05:49:04;;;;;;;40.40;30.73;;;;;;;16.73;100.00;100872.00;5075755;28;20063;-69
2022/07/24 05:51:30;;;;;;;34.85;29.17;;;;;;;16.72;100.00;100865.00;5077945;28;20120;-69
2022/07/24 05:53:55;;;;;;;33.63;30.02;;;;;;;16.88;100.00;100870.09;5094539;28;20493;-69
2022/07/24 05:56:21;;;;;;;36.88;31.83;;;;;;;16.99;100.00;100872.03;5072996;28;20047;-69
2022/07/24 05:58:46;;;;;;;40.38;33.28;;;;;;;17.06;100.00;100871.50;5076485;28;20060;-69
2022/07/24 06:01:11;;;;;;;39.55;30.95;;;;;;;17.07;100.00;100864.34;5068881;28;20036;-69
2022/07/24 06:03:37;;;;;;;43.05;33.70;;;;;;;17.16;100.00;100867.25;5089518;28;20059;-69
2022/07/24 06:06:05;;;;;;;39.13;32.17;;;;;;;17.33;100.00;100877.53;5086756;28;20034;-69
2022/07/24 06:08:31;;;;;;;33.85;30.20;;;;;;;17.36;100.00;100872.00;5085696;28;20505;-69
2022/07/24 06:10:56;;;;;;;54.50;35.95;;;;;;;17.44;100.00;100870.63;5064739;28;20020;-69
2022/07/24 06:13:22;;;;;;;36.10;32.25;;;;;;;17.60;100.00;100876.56;5089325;28;20032;-70
2022/07/24 06:15:47;;;;;;;41.92;34.17;;;;;;;17.65;100.00;100877.06;5075098;28;20032;-69
2022/07/24 06:18:12;;;;;;;43.67;32.53;;;;;;;17.72;100.00;100871.22;5088845;28;20024;-69
2022/07/24 06:20:38;;;;;;;44.03;33.00;;;;;;;17.85;100.00;100874.69;5080549;28;20028;-70
2022/07/24 06:23:03;;;;;;;43.85;35.05;;;;;;;18.03;100.00;100893.75;5071903;28;20036;-70
2022/07/24 06:25:28;;;;;;;40.38;33.65;;;;;;;18.12;100.00;100893.06;5065024;28;20056;-70
2022/07/24 06:27:54;;;;;;;40.47;34.22;;;;;;;18.29;100.00;100891.84;5057031;28;20021;-69
2022/07/24 06:30:22;;;;;;;38.33;32.88;;;;;;;18.33;100.00;100886.19;5080256;28;20386;-69
2022/07/24 06:32:48;;;;;;;45.55;32.20;;;;;;;18.46;100.00;100894.09;5089283;28;20103;-69
2022/07/24 06:35:15;;;;;;;41.72;34.17;;;;;;;18.37;100.00;100870.84;5074775;28;20029;-70
2022/07/24 06:37:40;;;;;;;38.22;32.97;;;;;;;18.58;100.00;100879.91;5073061;28;20075;-70
2022/07/24 06:40:07;;;;;;;43.90;33.13;;;;;;;18.68;100.00;100885.38;5073467;28;20560;-70
2022/07/24 06:42:32;;;;;;;33.60;30.08;;;;;;;18.84;100.00;100902.72;5060309;28;20021;-69
2022/07/24 06:44:57;;;;;;;40.55;30.67;;;;;;;18.86;100.00;100883.94;5056254;28;20628;-69
2022/07/24 06:47:23;;;;;;;44.20;28.55;;;;;;;19.04;100.00;100887.88;5052808;28;20053;-69
2022/07/24 06:49:48;;;;;;;33.63;28.55;;;;;;;19.08;100.00;100884.00;5052943;28;20033;-69
2022/07/24 06:52:14;;;;;;;31.08;25.85;;;;;;;19.28;100.00;100895.78;5075056;28;20059;-69
2022/07/24 06:54:39;;;;;;;33.30;28.55;;;;;;;19.37;100.00;100906.56;5092391;28;20028;-69
2022/07/24 06:57:04;;;;;;;32.72;28.23;;;;;;;19.44;100.00;100901.63;5067302;28;20550;-69
2022/07/24 06:59:30;;;;;;;36.55;29.83;;;;;;;19.54;100.00;100899.06;5070157;28;20025;-69
2022/07/24 07:01:56;;;;;;;35.92;28.27;;;;;;;19.63;100.00;100906.34;5060021;28;20051;-70
2022/07/24 07:04:21;;;;;;;39.35;28.85;;;;;;;19.65;100.00;100891.06;5063062;28;20545;-69
2022/07/24 07:06:46;;;;;;;38.00;30.65;;;;;;;19.68;100.00;100881.00;5089288;28;20402;-70
2022/07/24 07:09:12;;;;;;;33.60;27.30;;;;;;;19.74;100.00;100874.31;5085160;28;20479;-69
2022/07/24 07:11:37;;;;;;;36.83;28.25;;;;;;;19.84;100.00;100884.13;5073149;28;20128;-70
2022/07/24 07:14:03;;;;;;;37.40;25.23;;;;;;;19.96;100.00;100881.44;5086872;28;20023;-69
2022/07/24 07:16:28;;;;;;;33.72;30.10;;;;;;;19.97;100.00;100864.47;5087387;28;20093;-69
2022/07/24 07:18:53;;;;;;;29.10;25.15;;;;;;;20.09;100.00;100877.66;5088624;28;20044;-70
2022/07/24 07:21:19;;;;;;;35.17;27.98;;;;;;;20.14;100.00;100882.63;5074564;28;20494;-70
2022/07/24 07:23:44;;;;;;;33.22;26.58;;;;;;;20.14;100.00;100874.63;5061144;28;20055;-69
2022/07/24 07:26:09;;;;;;;32.65;29.17;;;;;;;20.31;100.00;100888.28;5056522;28;20029;-70
2022/07/24 07:28:35;;;;;;;34.58;30.05;;;;;;;20.31;100.00;100877.59;5066080;28;20126;-69
2022/07/24 07:31:00;;;;;;;36.03;28.35;;;;;;;20.43;100.00;100877.56;5074671;28;20040;-69
2022/07/24 07:33:26;;;;;;;34.70;28.80;;;;;;;20.52;100.00;100874.97;5074111;28;20025;-69
2022/07/24 07:35:52;;;;;;;38.72;28.77;;;;;;;20.61;100.00;100873.34;5075543;28;20031;-69
2022/07/24 07:38:17;;;;;;;30.48;24.58;;;;;;;20.70;100.00;100880.59;5087230;28;20033;-70
2022/07/24 07:40:43;;;;;;;30.20;24.85;;;;;;;20.81;100.00;100893.88;5054321;28;20029;-70
2022/07/24 07:43:08;;;;;;;33.92;26.67;;;;;;;20.81;100.00;100883.19;5062548;28;20028;-70
2022/07/24 07:45:34;;;;;;;33.13;25.02;;;;;;;20.92;100.00;100883.09;5057219;28;20071;-70
2022/07/24 07:47:59;;;;;;;30.08;24.33;;;;;;;21.01;100.00;100879.66;5067343;28;20024;-70
2022/07/24 07:50:25;;;;;;;31.23;22.73;;;;;;;21.03;100.00;100864.34;5079972;28;20024;-72
2022/07/24 07:52:50;;;;;;;32.47;22.05;;;;;;;21.19;100.00;100874.59;5081343;28;20050;-69
2022/07/24 07:55:16;;;;;;;24.98;20.88;;;;;;;21.32;100.00;100881.41;5051480;28;20024;-70
2022/07/24 07:57:43;;;;;;;29.20;18.50;;;;;;;21.44;100.00;100881.31;5060868;28;20029;-70
2022/07/24 08:00:09;;;;;;;20.52;16.75;;;;;;;21.42;100.00;100872.59;5068234;28;20459;-69
2022/07/24 08:02:35;;;;;;;25.52;19.13;;;;;;;21.53;100.00;100872.50;5072000;28;20052;-70
2022/07/24 08:05:00;;;;;;;17.95;14.60;;;;;;;21.67;100.00;100882.78;5058652;28;20065;-70
2022/07/24 08:07:25;;;;;;;18.30;14.38;;;;;;;21.66;100.00;100863.25;5075979;28;20020;-70
2022/07/24 08:09:51;;;;;;;18.98;11.57;;;;;;;21.71;100.00;100857.47;5066552;28;20127;-70
2022/07/24 08:12:16;;;;;;;14.55;9.93;;;;;;;21.84;100.00;100863.41;5071568;28;20035;-70
2022/07/24 08:14:42;;;;;;;13.65;8.95;;;;;;;21.86;100.00;100851.59;5083676;28;20466;-72
2022/07/24 08:17:07;;;;;;;12.23;8.80;;;;;;;21.93;100.00;100849.25;5076376;28;20028;-70
2022/07/24 08:19:32;;;;;;;12.88;7.68;;;;;;;22.10;100.00;100853.94;5060615;28;20119;-72
2022/07/24 08:21:58;;;;;;;11.07;9.57;;;;;;;22.21;100.00;100864.47;5067245;28;20074;-67
2022/07/24 08:24:23;;;;;;;11.43;7.20;;;;;;;22.16;100.00;100845.34;5066336;28;20068;-70
2022/07/24 08:26:49;;;;;;;11.10;7.68;;;;;;;22.44;100.00;100858.88;5057919;28;20427;-69
2022/07/24 08:29:15;;;;;;;10.30;6.57;;;;;;;22.58;100.00;100859.25;5066820;28;20030;-69
2022/07/24 08:31:40;;;;;;;9.02;6.25;;;;;;;22.71;100.00;100861.69;5054787;28;20033;-70
2022/07/24 08:34:05;;;;;;;9.45;6.03;;;;;;;22.68;100.00;100848.56;5055367;28;20037;-69
2022/07/24 08:36:31;;;;;;;8.57;5.75;;;;;;;22.77;100.00;100839.69;5072759;28;20033;-71
2022/07/24 08:38:56;;;;;;;8.88;5.15;;;;;;;23.02;100.00;100857.78;5070899;28;20032;-71
2022/07/24 08:41:22;;;;;;;12.52;6.65;;;;;;;23.11;100.00;100851.59;5076697;28;20035;-70
2022/07/24 08:43:47;;;;;;;9.43;6.72;;;;;;;23.19;100.00;100867.78;5068233;28;20102;-70
2022/07/24 08:46:14;;;;;;;9.82;5.40;;;;;;;23.32;100.00;100876.31;5070907;28;20024;-69
2022/07/24 08:48:44;;;;;;;7.40;5.53;;;;;;;23.42;100.00;100858.38;5081716;28;20050;-70
2022/07/24 08:51:09;;;;;;;8.68;5.68;;;;;;;23.50;100.00;100859.50;5070587;28;20032;-70
2022/07/24 08:53:35;;;;;;;9.77;6.00;;;;;;;23.55;100.00;100867.94;5082009;28;20033;-69
2022/07/24 08:56:00;;;;;;;10.18;5.57;;;;;;;23.56;100.00;100848.16;5058140;28;20037;-70
2022/07/24 08:58:26;;;;;;;17.38;6.50;;;;;;;23.56;100.00;100842.78;5058366;28;20020;-69
2022/07/24 09:00:51;;;;;;;12.50;6.45;;;;;;;23.71;100.00;100846.66;5062653;28;20108;-69
2022/07/24 09:03:16;;;;;;;10.13;6.03;;;;;;;23.89;100.00;100852.94;5063619;28;20409;-70
2022/07/24 09:05:56;;;;;;;11.13;7.63;;;;;;;23.91;100.00;100832.13;5052498;28;20021;-70
2022/07/24 09:08:21;;;;;;;10.15;7.07;;;;;;;24.08;100.00;100844.72;5051862;28;20048;-70
2022/07/24 09:11:03;;;;;;;7.68;5.95;;;;;;;23.92;100.00;100812.34;5053034;28;20029;-69
2022/07/24 09:14:29;;;;;;;12.48;5.93;;;;;;;24.17;100.00;100835.78;5053544;28;20064;-70
2022/07/24 09:16:24;;;;;;;10.25;7.03;;;;;;;24.27;100.00;100841.06;5062757;28;20037;-70
2022/07/24 09:19:08;;;;;;;7.97;5.95;;;;;;;24.38;100.00;100847.06;5054611;28;20087;-70
2022/07/24 09:21:36;;;;;;;10.88;5.88;;;;;;;24.47;100.00;100847.97;5077013;28;20040;-70
2022/07/24 09:24:22;;;;;;;12.98;7.13;;;;;;;24.56;100.00;100846.19;5056446;28;20078;-70
2022/07/24 09:26:52;;;;;;;8.85;6.85;;;;;;;24.61;100.00;100839.34;5063338;28;20067;-71
2022/07/24 09:29:18;;;;;;;14.48;7.28;;;;;;;24.57;100.00;100821.03;5064698;28;20083;-70
2022/07/24 09:31:50;;;;;;;11.85;7.03;;;;;;;24.59;100.00;100840.50;5054271;28;20124;-68
2022/07/24 09:34:16;;;;;;;10.15;7.05;;;;;;;24.55;100.00;100825.69;5071039;28;20040;-69
2022/07/24 09:36:41;;;;;;;9.48;6.63;;;;;;;24.58;100.00;100820.84;5052260;28;20029;-68
2022/07/24 09:39:07;;;;;;;11.65;7.70;;;;;;;24.67;100.00;100829.84;5056698;28;20021;-69
2022/07/24 09:41:32;;;;;;;9.02;7.35;;;;;;;24.73;100.00;100842.63;5058799;28;20028;-69
2022/07/24 09:44:02;;;;;;;11.15;6.82;;;;;;;24.76;100.00;100831.56;5072272;28;20075;-69
2022/07/24 09:46:28;;;;;;;9.98;6.68;;;;;;;24.69;100.00;100801.78;5069603;28;20029;-69
2022/07/24 09:48:57;;;;;;;9.05;6.38;;;;;;;24.91;100.00;100827.31;5069125;28;20398;-70
2022/07/24 09:51:23;;;;;;;10.60;5.78;;;;;;;24.99;100.00;100813.09;5070422;28;20029;-70
2022/07/24 09:53:54;;;;;;;9.48;7.20;;;;;;;25.09;100.00;100811.97;5060268;28;20036;-70
2022/07/24 09:56:20;;;;;;;8.57;5.65;;;;;;;25.14;100.00;100811.50;5070596;28;20039;-71
2022/07/24 09:58:45;;;;;;;11.18;5.57;;;;;;;25.22;100.00;100804.28;5086875;28;20028;-70
2022/07/24 10:01:14;;;;;;;17.50;5.15;;;;;;;25.17;100.00;100798.56;5086143;28;20036;-71
2022/07/24 10:03:41;;;;;;;6.20;4.57;;;;;;;25.33;100.00;100804.00;5039368;28;20483;-69
2022/07/24 10:06:10;;;;;;;6.60;5.03;;;;;;;25.31;100.00;100783.66;5044374;28;20024;-71
2022/07/24 10:08:37;;;;;;;6.95;5.40;;;;;;;25.49;100.00;100784.38;5056474;28;20109;-69
2022/07/24 10:11:03;;;;;;;7.72;4.07;;;;;;;25.61;100.00;100793.03;5038324;28;20429;-70
2022/07/24 10:13:29;;;;;;;11.00;4.97;;;;;;;25.72;100.00;100792.75;5092268;28;20028;-72
2022/07/24 10:16:19;;;;;;;7.47;4.38;;;;;;;25.70;97.83;100792.03;5057276;28;20380;-72
2022/07/24 10:18:51;;;;;;;11.15;4.57;;;;;;;25.80;98.43;100792.75;5055512;28;20055;-71
2022/07/24 10:21:26;;;;;;;6.28;4.30;;;;;;;25.85;97.71;100793.09;5052474;28;20028;-72
2022/07/24 10:24:07;;;;;;;7.55;4.50;;;;;;;25.92;95.91;100794.13;5100418;28;20028;-72
2022/07/24 10:26:41;;;;;;;8.80;4.10;;;;;;;25.92;94.97;100797.63;5056247;28;20036;-71
2022/07/24 10:29:12;;;;;;;7.95;4.78;;;;;;;25.95;93.98;100791.09;5057703;28;20145;-72
2022/07/24 10:31:42;;;;;;;6.88;5.07;;;;;;;25.99;93.87;100792.44;5075017;28;20044;-71
2022/07/24 10:34:31;;;;;;;7.40;4.75;;;;;;;25.98;94.62;100780.00;5074865;28;20024;-72
2022/07/24 10:37:27;;;;;;;9.75;4.53;;;;;;;26.03;94.85;100788.41;5086635;28;20076;-72
2022/07/24 10:40:11;;;;;;;10.18;4.82;;;;;;;26.09;93.04;100770.75;5067936;28;20444;-72
2022/07/24 10:43:09;;;;;;;6.18;4.65;;;;;;;26.08;92.65;100780.66;5069605;28;20048;-71
2022/07/24 10:45:38;;;;;;;7.47;4.18;;;;;;;26.17;95.05;100773.44;5060080;28;20077;-71
2022/07/24 10:48:23;;;;;;;7.53;4.55;;;;;;;26.39;93.25;100778.19;5067306;28;20043;-72
2022/07/24 10:51:01;;;;;;;6.53;4.35;;;;;;;26.49;92.87;100768.06;5078805;28;20406;-71
2022/07/24 10:53:30;;;;;;;5.88;4.50;;;;;;;26.34;90.39;100754.41;5078813;28;20555;-72
2022/07/24 10:56:14;;;;;;;5.47;3.83;;;;;;;26.37;91.63;100758.63;5077294;28;20032;-72
2022/07/24 10:59:00;;;;;;;5.10;3.03;;;;;;;26.58;91.38;100766.19;5080971;28;20040;-70
2022/07/24 11:01:47;;;;;;;5.88;3.40;;;;;;;26.71;86.65;100750.31;5066598;28;20036;-69
2022/07/24 11:04:18;;;;;;;5.38;2.88;;;;;;;26.86;89.45;100754.88;5065759;28;20173;-72
2022/07/24 11:06:54;;;;;;;4.35;2.88;;;;;;;26.96;86.68;100749.28;5065795;28;20021;-70
2022/07/24 11:09:25;;;;;;;4.18;2.88;;;;;;;27.02;85.34;100764.75;5095053;27;20038;-72